sensor_id;sensor_type;location;lat;lon;timestamp;pressure;altitude;pressure_sealevel;temperature;humidity
48530;BME280;34927;37.302;-121.982;2023-03-26T00:00:02;101606.0;;;21.63;21.20
48530;BME280;34927;37.302;-121.982;2023-03-26T00:01:08;101612.0;;;21.52;21.36
48530;BME280;34927;37.302;-121.982;2023-03-26T00:02:12;101610.0;;;21.59;21.27
48530;BME280;34927;37.302;-121.982;2023-03-26T00:03:17;101609.0;;;21.50;21.25
48530;BME280;34927;37.302;-121.982;2023-03-26T00:04:21;101610.0;;;21.32;21.43
48530;BME280;34927;37.302;-121.982;2023-03-26T00:05:26;101610.0;;;21.46;21.39
48530;BME280;34927;37.302;-121.982;2023-03-26T00:06:34;101609.0;;;21.50;21.20
48530;BME280;34927;37.302;-121.982;2023-03-26T00:07:36;101610.0;;;21.57;21.22
48530;BME280;34927;37.302;-121.982;2023-03-26T00:08:43;101610.0;;;21.56;21.34
48530;BME280;34927;37.302;-121.982;2023-03-26T00:09:46;101607.0;;;21.53;21.33
48530;BME280;34927;37.302;-121.982;2023-03-26T00:10:51;101611.0;;;21.44;21.40
48530;BME280;34927;37.302;-121.982;2023-03-26T00:11:58;101608.0;;;21.60;21.29
48530;BME280;34927;37.302;-121.982;2023-03-26T00:13:02;101608.0;;;21.52;21.37
48530;BME280;34927;37.302;-121.982;2023-03-26T00:14:07;101601.0;;;21.44;21.46
48530;BME280;34927;37.302;-121.982;2023-03-26T00:15:17;101602.0;;;21.38;21.38
48530;BME280;34927;37.302;-121.982;2023-03-26T00:16:23;101603.0;;;21.51;21.36
48530;BME280;34927;37.302;-121.982;2023-03-26T00:17:26;101606.0;;;21.60;21.23
48530;BME280;34927;37.302;-121.982;2023-03-26T00:18:32;101608.0;;;21.65;21.22
48530;BME280;34927;37.302;-121.982;2023-03-26T00:19:37;101606.0;;;21.69;20.97
48530;BME280;34927;37.302;-121.982;2023-03-26T00:20:42;101600.0;;;21.66;20.82
48530;BME280;34927;37.302;-121.982;2023-03-26T00:21:46;101603.0;;;21.62;20.93
48530;BME280;34927;37.302;-121.982;2023-03-26T00:22:52;101598.0;;;21.66;20.75
48530;BME280;34927;37.302;-121.982;2023-03-26T00:24:00;101596.0;;;21.73;20.67
48530;BME280;34927;37.302;-121.982;2023-03-26T00:25:07;101595.0;;;21.69;20.87
48530;BME280;34927;37.302;-121.982;2023-03-26T00:26:12;101592.0;;;21.78;20.70
48530;BME280;34927;37.302;-121.982;2023-03-26T00:27:16;101591.0;;;21.75;20.76
48530;BME280;34927;37.302;-121.982;2023-03-26T00:28:22;101589.0;;;21.81;20.47
48530;BME280;34927;37.302;-121.982;2023-03-26T00:29:26;101588.0;;;21.79;20.60
48530;BME280;34927;37.302;-121.982;2023-03-26T00:30:33;101586.0;;;21.72;19.95
48530;BME280;34927;37.302;-121.982;2023-03-26T00:31:36;101594.0;;;21.55;20.29
48530;BME280;34927;37.302;-121.982;2023-03-26T00:32:42;101590.0;;;21.31;20.64
48530;BME280;34927;37.302;-121.982;2023-03-26T00:33:46;101588.0;;;21.29;20.98
48530;BME280;34927;37.302;-121.982;2023-03-26T00:34:52;101590.0;;;21.27;21.00
48530;BME280;34927;37.302;-121.982;2023-03-26T00:35:59;101590.0;;;21.34;21.11
48530;BME280;34927;37.302;-121.982;2023-03-26T00:37:02;101584.0;;;21.38;21.16
48530;BME280;34927;37.302;-121.982;2023-03-26T00:38:07;101582.0;;;21.39;21.10
48530;BME280;34927;37.302;-121.982;2023-03-26T00:39:12;101584.0;;;21.26;21.25
48530;BME280;34927;37.302;-121.982;2023-03-26T00:40:16;101585.0;;;21.28;21.16
48530;BME280;34927;37.302;-121.982;2023-03-26T00:41:23;101584.0;;;21.21;21.40
48530;BME280;34927;37.302;-121.982;2023-03-26T00:42:27;101588.0;;;21.22;21.26
48530;BME280;34927;37.302;-121.982;2023-03-26T00:43:32;101584.0;;;21.10;21.44
48530;BME280;34927;37.302;-121.982;2023-03-26T00:44:37;101585.0;;;21.04;21.62
48530;BME280;34927;37.302;-121.982;2023-03-26T00:45:41;101586.0;;;20.97;21.74
48530;BME280;34927;37.302;-121.982;2023-03-26T00:46:46;101586.0;;;21.08;21.77
48530;BME280;34927;37.302;-121.982;2023-03-26T00:47:51;101584.0;;;21.07;21.66
48530;BME280;34927;37.302;-121.982;2023-03-26T00:48:57;101587.0;;;20.91;21.89
48530;BME280;34927;37.302;-121.982;2023-03-26T00:50:02;101586.0;;;21.10;21.75
48530;BME280;34927;37.302;-121.982;2023-03-26T00:51:07;101591.0;;;20.95;21.73
48530;BME280;34927;37.302;-121.982;2023-03-26T00:52:12;101590.0;;;20.92;21.90
48530;BME280;34927;37.302;-121.982;2023-03-26T00:53:17;101588.0;;;20.93;21.93
48530;BME280;34927;37.302;-121.982;2023-03-26T00:54:22;101589.0;;;20.92;22.12
48530;BME280;34927;37.302;-121.982;2023-03-26T00:55:27;101590.0;;;20.90;22.02
48530;BME280;34927;37.302;-121.982;2023-03-26T00:56:31;101588.0;;;20.86;22.16
48530;BME280;34927;37.302;-121.982;2023-03-26T00:57:37;101587.0;;;20.91;22.16
48530;BME280;34927;37.302;-121.982;2023-03-26T00:58:42;101585.0;;;20.94;22.22
48530;BME280;34927;37.302;-121.982;2023-03-26T00:59:47;101589.0;;;20.88;22.21
48530;BME280;34927;37.302;-121.982;2023-03-26T01:00:54;101582.0;;;20.78;22.35
48530;BME280;34927;37.302;-121.982;2023-03-26T01:01:57;101587.0;;;20.82;22.41
48530;BME280;34927;37.302;-121.982;2023-03-26T01:03:02;101585.0;;;20.85;22.25
48530;BME280;34927;37.302;-121.982;2023-03-26T01:06:33;101579.0;;;20.70;22.74
48530;BME280;34927;37.302;-121.982;2023-03-26T01:07:36;101579.0;;;20.70;22.81
48530;BME280;34927;37.302;-121.982;2023-03-26T01:08:44;101575.0;;;20.67;23.00
48530;BME280;34927;37.302;-121.982;2023-03-26T01:09:47;101577.0;;;20.59;23.20
48530;BME280;34927;37.302;-121.982;2023-03-26T01:10:53;101577.0;;;20.72;23.24
48530;BME280;34927;37.302;-121.982;2023-03-26T01:11:57;101582.0;;;20.60;23.45
48530;BME280;34927;37.302;-121.982;2023-03-26T01:13:02;101578.0;;;20.59;23.49
48530;BME280;34927;37.302;-121.982;2023-03-26T01:14:11;101582.0;;;20.63;23.54
48530;BME280;34927;37.302;-121.982;2023-03-26T01:15:18;101581.0;;;20.61;23.59
48530;BME280;34927;37.302;-121.982;2023-03-26T01:16:26;101582.0;;;20.56;23.59
48530;BME280;34927;37.302;-121.982;2023-03-26T01:17:31;101576.0;;;20.48;23.70
48530;BME280;34927;37.302;-121.982;2023-03-26T01:18:38;101576.0;;;20.47;23.76
48530;BME280;34927;37.302;-121.982;2023-03-26T01:19:47;101572.0;;;20.53;23.93
48530;BME280;34927;37.302;-121.982;2023-03-26T01:20:54;101575.0;;;20.51;24.05
48530;BME280;34927;37.302;-121.982;2023-03-26T01:21:57;101576.0;;;20.48;24.12
48530;BME280;34927;37.302;-121.982;2023-03-26T01:23:05;101576.0;;;20.56;24.11
48530;BME280;34927;37.302;-121.982;2023-03-26T01:24:11;101580.0;;;20.59;24.08
48530;BME280;34927;37.302;-121.982;2023-03-26T01:25:17;101580.0;;;20.75;23.94
48530;BME280;34927;37.302;-121.982;2023-03-26T01:26:36;101577.0;;;20.65;24.06
48530;BME280;34927;37.302;-121.982;2023-03-26T01:27:44;101580.0;;;20.60;24.45
48530;BME280;34927;37.302;-121.982;2023-03-26T01:28:55;101580.0;;;20.77;24.24
48530;BME280;34927;37.302;-121.982;2023-03-26T01:30:07;101582.0;;;20.75;24.28
48530;BME280;34927;37.302;-121.982;2023-03-26T01:31:16;101584.0;;;20.73;24.31
48530;BME280;34927;37.302;-121.982;2023-03-26T01:32:36;101585.0;;;20.73;24.22
48530;BME280;34927;37.302;-121.982;2023-03-26T01:33:50;101586.0;;;20.73;24.57
48530;BME280;34927;37.302;-121.982;2023-03-26T01:35:07;101586.0;;;20.67;24.71
48530;BME280;34927;37.302;-121.982;2023-03-26T01:36:16;101586.0;;;20.69;24.74
48530;BME280;34927;37.302;-121.982;2023-03-26T01:37:26;101583.0;;;20.71;24.65
48530;BME280;34927;37.302;-121.982;2023-03-26T01:38:39;101587.0;;;20.75;24.64
48530;BME280;34927;37.302;-121.982;2023-03-26T01:39:55;101585.0;;;20.66;25.06
48530;BME280;34927;37.302;-121.982;2023-03-26T01:41:05;101583.0;;;20.69;24.92
48530;BME280;34927;37.302;-121.982;2023-03-26T01:42:16;101587.0;;;20.67;25.08
48530;BME280;34927;37.302;-121.982;2023-03-26T01:43:29;101587.0;;;20.71;25.23
48530;BME280;34927;37.302;-121.982;2023-03-26T01:44:42;101587.0;;;20.74;25.18
48530;BME280;34927;37.302;-121.982;2023-03-26T01:45:48;101588.0;;;20.78;25.25
48530;BME280;34927;37.302;-121.982;2023-03-26T01:46:52;101584.0;;;20.79;25.25
48530;BME280;34927;37.302;-121.982;2023-03-26T01:47:57;101584.0;;;20.85;25.29
48530;BME280;34927;37.302;-121.982;2023-03-26T01:49:04;101584.0;;;21.04;25.19
48530;BME280;34927;37.302;-121.982;2023-03-26T01:50:08;101583.0;;;20.93;25.32
48530;BME280;34927;37.302;-121.982;2023-03-26T01:51:23;101584.0;;;20.87;25.46
48530;BME280;34927;37.302;-121.982;2023-03-26T01:52:31;101581.0;;;20.78;25.62
48530;BME280;34927;37.302;-121.982;2023-03-26T01:53:39;101583.0;;;20.71;25.77
48530;BME280;34927;37.302;-121.982;2023-03-26T01:54:47;101583.0;;;20.65;26.00
48530;BME280;34927;37.302;-121.982;2023-03-26T01:55:57;101584.0;;;20.66;25.97
48530;BME280;34927;37.302;-121.982;2023-03-26T01:57:13;101581.0;;;20.59;26.02
48530;BME280;34927;37.302;-121.982;2023-03-26T01:58:29;101583.0;;;20.61;26.17
48530;BME280;34927;37.302;-121.982;2023-03-26T01:59:51;101585.0;;;20.75;25.85
48530;BME280;34927;37.302;-121.982;2023-03-26T02:01:07;101587.0;;;20.79;26.00
48530;BME280;34927;37.302;-121.982;2023-03-26T02:02:13;101589.0;;;20.86;25.95
48530;BME280;34927;37.302;-121.982;2023-03-26T02:03:26;101591.0;;;20.80;26.07
48530;BME280;34927;37.302;-121.982;2023-03-26T02:04:35;101591.0;;;20.92;25.80
48530;BME280;34927;37.302;-121.982;2023-03-26T02:05:51;101592.0;;;20.78;26.31
48530;BME280;34927;37.302;-121.982;2023-03-26T02:07:01;101593.0;;;20.76;26.28
48530;BME280;34927;37.302;-121.982;2023-03-26T02:08:11;101592.0;;;20.74;26.27
48530;BME280;34927;37.302;-121.982;2023-03-26T02:09:21;101592.0;;;20.77;26.23
48530;BME280;34927;37.302;-121.982;2023-03-26T02:10:28;101591.0;;;20.90;26.26
48530;BME280;34927;37.302;-121.982;2023-03-26T02:11:31;101589.0;;;20.76;26.32
48530;BME280;34927;37.302;-121.982;2023-03-26T02:12:37;101589.0;;;20.73;26.37
48530;BME280;34927;37.302;-121.982;2023-03-26T02:13:43;101589.0;;;20.74;26.44
48530;BME280;34927;37.302;-121.982;2023-03-26T02:14:47;101588.0;;;20.76;26.48
48530;BME280;34927;37.302;-121.982;2023-03-26T02:15:57;101588.0;;;20.85;26.35
48530;BME280;34927;37.302;-121.982;2023-03-26T02:17:01;101591.0;;;20.84;26.52
48530;BME280;34927;37.302;-121.982;2023-03-26T02:18:07;101598.0;;;20.90;26.31
48530;BME280;34927;37.302;-121.982;2023-03-26T02:19:12;101593.0;;;20.87;26.33
48530;BME280;34927;37.302;-121.982;2023-03-26T02:20:18;101590.0;;;20.82;26.62
48530;BME280;34927;37.302;-121.982;2023-03-26T02:21:24;101592.0;;;20.96;26.42
48530;BME280;34927;37.302;-121.982;2023-03-26T02:22:26;101590.0;;;21.13;26.25
48530;BME280;34927;37.302;-121.982;2023-03-26T02:23:32;101593.0;;;21.47;25.91
48530;BME280;34927;37.302;-121.982;2023-03-26T02:24:37;101592.0;;;21.80;25.50
48530;BME280;34927;37.302;-121.982;2023-03-26T02:25:41;101590.0;;;22.12;25.10
48530;BME280;34927;37.302;-121.982;2023-03-26T02:26:47;101588.0;;;22.44;24.73
48530;BME280;34927;37.302;-121.982;2023-03-26T02:27:52;101592.0;;;22.71;24.40
48530;BME280;34927;37.302;-121.982;2023-03-26T02:28:57;101596.0;;;23.00;24.13
48530;BME280;34927;37.302;-121.982;2023-03-26T02:30:02;101592.0;;;23.17;23.91
48530;BME280;34927;37.302;-121.982;2023-03-26T02:31:07;101593.0;;;23.34;23.69
48530;BME280;34927;37.302;-121.982;2023-03-26T02:32:11;101593.0;;;23.56;23.51
48530;BME280;34927;37.302;-121.982;2023-03-26T02:33:17;101594.0;;;23.73;23.33
48530;BME280;34927;37.302;-121.982;2023-03-26T02:34:22;101592.0;;;23.83;23.20
48530;BME280;34927;37.302;-121.982;2023-03-26T02:35:27;101592.0;;;24.00;23.07
48530;BME280;34927;37.302;-121.982;2023-03-26T02:36:33;101594.0;;;24.13;22.91
48530;BME280;34927;37.302;-121.982;2023-03-26T02:37:37;101596.0;;;24.25;22.80
48530;BME280;34927;37.302;-121.982;2023-03-26T02:38:41;101597.0;;;24.32;22.72
48530;BME280;34927;37.302;-121.982;2023-03-26T02:39:46;101597.0;;;24.46;22.66
48530;BME280;34927;37.302;-121.982;2023-03-26T02:40:51;101598.0;;;24.53;22.55
48530;BME280;34927;37.302;-121.982;2023-03-26T02:41:56;101599.0;;;24.65;22.51
48530;BME280;34927;37.302;-121.982;2023-03-26T02:43:01;101601.0;;;24.74;22.39
48530;BME280;34927;37.302;-121.982;2023-03-26T02:44:06;101603.0;;;24.82;22.34
48530;BME280;34927;37.302;-121.982;2023-03-26T02:45:12;101606.0;;;24.87;22.29
48530;BME280;34927;37.302;-121.982;2023-03-26T02:46:16;101607.0;;;24.91;22.29
48530;BME280;34927;37.302;-121.982;2023-03-26T02:47:21;101608.0;;;24.65;22.48
48530;BME280;34927;37.302;-121.982;2023-03-26T02:48:26;101611.0;;;24.51;22.61
48530;BME280;34927;37.302;-121.982;2023-03-26T02:49:31;101615.0;;;24.36;22.82
48530;BME280;34927;37.302;-121.982;2023-03-26T02:50:36;101612.0;;;24.01;23.24
48530;BME280;34927;37.302;-121.982;2023-03-26T02:51:41;101611.0;;;23.71;23.51
48530;BME280;34927;37.302;-121.982;2023-03-26T02:52:47;101611.0;;;23.63;23.59
48530;BME280;34927;37.302;-121.982;2023-03-26T02:53:58;101613.0;;;23.67;23.72
48530;BME280;34927;37.302;-121.982;2023-03-26T02:55:01;101610.0;;;23.77;23.66
48530;BME280;34927;37.302;-121.982;2023-03-26T02:56:09;101606.0;;;23.96;23.53
48530;BME280;34927;37.302;-121.982;2023-03-26T02:57:11;101608.0;;;24.15;23.31
48530;BME280;34927;37.302;-121.982;2023-03-26T02:58:16;101608.0;;;24.41;23.10
48530;BME280;34927;37.302;-121.982;2023-03-26T02:59:22;101608.0;;;24.54;22.94
48530;BME280;34927;37.302;-121.982;2023-03-26T03:00:26;101610.0;;;24.74;22.76
48530;BME280;34927;37.302;-121.982;2023-03-26T03:01:32;101611.0;;;24.88;22.61
48530;BME280;34927;37.302;-121.982;2023-03-26T03:02:37;101614.0;;;25.01;22.51
48530;BME280;34927;37.302;-121.982;2023-03-26T03:03:42;101615.0;;;25.10;22.41
48530;BME280;34927;37.302;-121.982;2023-03-26T03:04:47;101617.0;;;25.19;22.34
48530;BME280;34927;37.302;-121.982;2023-03-26T03:05:52;101619.0;;;25.29;22.24
48530;BME280;34927;37.302;-121.982;2023-03-26T03:06:56;101618.0;;;25.33;22.23
48530;BME280;34927;37.302;-121.982;2023-03-26T03:08:02;101619.0;;;25.18;22.38
48530;BME280;34927;37.302;-121.982;2023-03-26T03:09:08;101619.0;;;24.92;22.64
48530;BME280;34927;37.302;-121.982;2023-03-26T03:10:12;101617.0;;;24.81;22.74
48530;BME280;34927;37.302;-121.982;2023-03-26T03:11:18;101617.0;;;24.53;23.01
48530;BME280;34927;37.302;-121.982;2023-03-26T03:12:21;101620.0;;;24.32;23.22
48530;BME280;34927;37.302;-121.982;2023-03-26T03:13:27;101622.0;;;24.12;23.47
48530;BME280;34927;37.302;-121.982;2023-03-26T03:14:33;101622.0;;;23.99;23.57
48530;BME280;34927;37.302;-121.982;2023-03-26T03:15:36;101626.0;;;23.94;23.82
48530;BME280;34927;37.302;-121.982;2023-03-26T03:16:41;101625.0;;;24.13;23.69
48530;BME280;34927;37.302;-121.982;2023-03-26T03:17:47;101630.0;;;24.31;23.56
48530;BME280;34927;37.302;-121.982;2023-03-26T03:18:52;101630.0;;;24.52;23.36
48530;BME280;34927;37.302;-121.982;2023-03-26T03:19:57;101631.0;;;24.75;23.14
48530;BME280;34927;37.302;-121.982;2023-03-26T03:21:02;101634.0;;;24.89;22.97
48530;BME280;34927;37.302;-121.982;2023-03-26T03:22:06;101635.0;;;25.06;22.79
48530;BME280;34927;37.302;-121.982;2023-03-26T03:23:13;101638.0;;;25.24;22.61
48530;BME280;34927;37.302;-121.982;2023-03-26T03:24:16;101640.0;;;25.33;22.51
48530;BME280;34927;37.302;-121.982;2023-03-26T03:25:21;101646.0;;;25.46;22.40
48530;BME280;34927;37.302;-121.982;2023-03-26T03:26:27;101648.0;;;25.55;22.32
48530;BME280;34927;37.302;-121.982;2023-03-26T03:27:32;101647.0;;;25.39;22.46
48530;BME280;34927;37.302;-121.982;2023-03-26T03:28:36;101645.0;;;25.12;22.73
48530;BME280;34927;37.302;-121.982;2023-03-26T03:29:41;101649.0;;;24.81;23.09
48530;BME280;34927;37.302;-121.982;2023-03-26T03:30:47;101647.0;;;24.48;23.47
48530;BME280;34927;37.302;-121.982;2023-03-26T03:31:51;101644.0;;;24.38;23.50
48530;BME280;34927;37.302;-121.982;2023-03-26T03:32:57;101647.0;;;24.22;23.60
48530;BME280;34927;37.302;-121.982;2023-03-26T03:34:02;101648.0;;;24.08;23.68
48530;BME280;34927;37.302;-121.982;2023-03-26T03:35:08;101649.0;;;24.05;23.80
48530;BME280;34927;37.302;-121.982;2023-03-26T03:36:13;101649.0;;;24.10;23.94
48530;BME280;34927;37.302;-121.982;2023-03-26T03:37:17;101647.0;;;24.26;23.84
48530;BME280;34927;37.302;-121.982;2023-03-26T03:38:22;101647.0;;;24.47;23.63
48530;BME280;34927;37.302;-121.982;2023-03-26T03:39:27;101651.0;;;24.69;23.42
48530;BME280;34927;37.302;-121.982;2023-03-26T03:40:32;101650.0;;;24.87;23.22
48530;BME280;34927;37.302;-121.982;2023-03-26T03:41:36;101650.0;;;25.08;23.03
48530;BME280;34927;37.302;-121.982;2023-03-26T03:42:41;101654.0;;;25.24;22.84
48530;BME280;34927;37.302;-121.982;2023-03-26T03:43:47;101655.0;;;25.42;22.67
48530;BME280;34927;37.302;-121.982;2023-03-26T03:44:51;101658.0;;;25.53;22.58
48530;BME280;34927;37.302;-121.982;2023-03-26T03:45:57;101664.0;;;25.59;22.46
48530;BME280;34927;37.302;-121.982;2023-03-26T03:47:02;101667.0;;;25.45;22.59
48530;BME280;34927;37.302;-121.982;2023-03-26T03:48:07;101666.0;;;25.04;23.00
48530;BME280;34927;37.302;-121.982;2023-03-26T03:49:12;101664.0;;;24.87;23.21
48530;BME280;34927;37.302;-121.982;2023-03-26T03:50:16;101667.0;;;24.76;23.36
48530;BME280;34927;37.302;-121.982;2023-03-26T03:51:22;101671.0;;;24.56;23.40
48530;BME280;34927;37.302;-121.982;2023-03-26T03:52:26;101668.0;;;24.36;23.62
48530;BME280;34927;37.302;-121.982;2023-03-26T03:53:31;101672.0;;;24.17;23.83
48530;BME280;34927;37.302;-121.982;2023-03-26T03:54:36;101676.0;;;23.98;24.09
48530;BME280;34927;37.302;-121.982;2023-03-26T03:55:41;101674.0;;;23.96;24.19
48530;BME280;34927;37.302;-121.982;2023-03-26T03:56:47;101676.0;;;24.14;24.19
48530;BME280;34927;37.302;-121.982;2023-03-26T03:57:51;101678.0;;;24.30;24.03
48530;BME280;34927;37.302;-121.982;2023-03-26T03:58:56;101677.0;;;24.59;23.77
48530;BME280;34927;37.302;-121.982;2023-03-26T04:00:02;101675.0;;;24.74;23.56
48530;BME280;34927;37.302;-121.982;2023-03-26T04:01:07;101678.0;;;24.99;23.33
48530;BME280;34927;37.302;-121.982;2023-03-26T04:02:12;101670.0;;;25.13;23.15
48530;BME280;34927;37.302;-121.982;2023-03-26T04:03:17;101679.0;;;25.31;22.97
48530;BME280;34927;37.302;-121.982;2023-03-26T04:04:21;101684.0;;;25.47;22.79
48530;BME280;34927;37.302;-121.982;2023-03-26T04:05:28;101684.0;;;25.49;22.87
48530;BME280;34927;37.302;-121.982;2023-03-26T04:06:31;101686.0;;;25.25;23.13
48530;BME280;34927;37.302;-121.982;2023-03-26T04:07:36;101684.0;;;25.05;23.41
48530;BME280;34927;37.302;-121.982;2023-03-26T04:08:41;101685.0;;;24.80;24.07
48530;BME280;34927;37.302;-121.982;2023-03-26T04:09:47;101684.0;;;24.62;23.95
48530;BME280;34927;37.302;-121.982;2023-03-26T04:10:52;101691.0;;;24.41;24.47
48530;BME280;34927;37.302;-121.982;2023-03-26T04:11:57;101685.0;;;24.25;25.12
48530;BME280;34927;37.302;-121.982;2023-03-26T04:13:02;101689.0;;;24.13;24.87
48530;BME280;34927;37.302;-121.982;2023-03-26T04:14:06;101687.0;;;23.91;25.21
48530;BME280;34927;37.302;-121.982;2023-03-26T04:15:11;101691.0;;;23.75;25.12
48530;BME280;34927;37.302;-121.982;2023-03-26T04:16:16;101688.0;;;24.00;25.07
48530;BME280;34927;37.302;-121.982;2023-03-26T04:17:22;101684.0;;;24.19;24.93
48530;BME280;34927;37.302;-121.982;2023-03-26T04:18:26;101683.0;;;24.42;24.69
48530;BME280;34927;37.302;-121.982;2023-03-26T04:19:32;101687.0;;;24.62;24.44
48530;BME280;34927;37.302;-121.982;2023-03-26T04:20:37;101683.0;;;24.89;24.17
48530;BME280;34927;37.302;-121.982;2023-03-26T04:21:42;101685.0;;;25.09;23.98
48530;BME280;34927;37.302;-121.982;2023-03-26T04:22:47;101686.0;;;25.28;23.81
48530;BME280;34927;37.302;-121.982;2023-03-26T04:23:51;101686.0;;;25.47;23.60
48530;BME280;34927;37.302;-121.982;2023-03-26T04:24:57;101688.0;;;25.41;23.59
48530;BME280;34927;37.302;-121.982;2023-03-26T04:26:03;101689.0;;;25.17;23.85
48530;BME280;34927;37.302;-121.982;2023-03-26T04:27:08;101696.0;;;24.99;24.18
48530;BME280;34927;37.302;-121.982;2023-03-26T04:28:25;101687.0;;;24.79;24.37
48530;BME280;34927;37.302;-121.982;2023-03-26T04:29:36;101686.0;;;24.38;24.96
48530;BME280;34927;37.302;-121.982;2023-03-26T04:30:42;101687.0;;;24.24;25.22
48530;BME280;34927;37.302;-121.982;2023-03-26T04:31:46;101681.0;;;23.98;25.75
48530;BME280;34927;37.302;-121.982;2023-03-26T04:32:52;101684.0;;;23.77;25.91
48530;BME280;34927;37.302;-121.982;2023-03-26T04:34:02;101680.0;;;23.70;25.75
48530;BME280;34927;37.302;-121.982;2023-03-26T04:35:09;101682.0;;;23.92;25.56
48530;BME280;34927;37.302;-121.982;2023-03-26T04:36:17;101684.0;;;24.04;25.56
48530;BME280;34927;37.302;-121.982;2023-03-26T04:37:25;101686.0;;;24.27;25.27
48530;BME280;34927;37.302;-121.982;2023-03-26T04:38:39;101688.0;;;24.55;25.00
48530;BME280;34927;37.302;-121.982;2023-03-26T04:39:41;101690.0;;;24.80;24.65
48530;BME280;34927;37.302;-121.982;2023-03-26T04:40:46;101688.0;;;25.04;24.38
48530;BME280;34927;37.302;-121.982;2023-03-26T04:41:52;101691.0;;;25.25;24.13
48530;BME280;34927;37.302;-121.982;2023-03-26T04:42:57;101696.0;;;25.45;23.92
48530;BME280;34927;37.302;-121.982;2023-03-26T04:44:02;101696.0;;;25.53;23.88
48530;BME280;34927;37.302;-121.982;2023-03-26T04:45:08;101698.0;;;25.43;23.95
48530;BME280;34927;37.302;-121.982;2023-03-26T04:46:11;101700.0;;;25.19;24.25
48530;BME280;34927;37.302;-121.982;2023-03-26T04:47:17;101703.0;;;24.86;24.79
48530;BME280;34927;37.302;-121.982;2023-03-26T04:48:22;101704.0;;;24.56;25.31
48530;BME280;34927;37.302;-121.982;2023-03-26T04:49:27;101700.0;;;24.41;25.29
48530;BME280;34927;37.302;-121.982;2023-03-26T04:50:31;101704.0;;;24.24;25.53
48530;BME280;34927;37.302;-121.982;2023-03-26T04:51:38;101702.0;;;24.07;25.62
48530;BME280;34927;37.302;-121.982;2023-03-26T04:52:42;101705.0;;;23.90;26.03
48530;BME280;34927;37.302;-121.982;2023-03-26T04:53:50;101709.0;;;23.85;25.82
48530;BME280;34927;37.302;-121.982;2023-03-26T04:54:56;101704.0;;;23.85;25.79
48530;BME280;34927;37.302;-121.982;2023-03-26T04:56:05;101702.0;;;23.92;25.71
48530;BME280;34927;37.302;-121.982;2023-03-26T04:57:16;101707.0;;;24.10;25.56
48530;BME280;34927;37.302;-121.982;2023-03-26T04:58:22;101712.0;;;24.31;25.25
48530;BME280;34927;37.302;-121.982;2023-03-26T04:59:30;101711.0;;;24.54;25.08
48530;BME280;34927;37.302;-121.982;2023-03-26T05:00:36;101711.0;;;24.79;24.78
48530;BME280;34927;37.302;-121.982;2023-03-26T05:01:42;101717.0;;;24.99;24.54
48530;BME280;34927;37.302;-121.982;2023-03-26T05:02:48;101715.0;;;25.25;24.41
48530;BME280;34927;37.302;-121.982;2023-03-26T05:03:53;101720.0;;;25.36;24.23
48530;BME280;34927;37.302;-121.982;2023-03-26T05:04:57;101721.0;;;25.28;24.33
48530;BME280;34927;37.302;-121.982;2023-03-26T05:06:02;101725.0;;;25.00;24.74
48530;BME280;34927;37.302;-121.982;2023-03-26T05:07:08;101724.0;;;24.71;25.28
48530;BME280;34927;37.302;-121.982;2023-03-26T05:08:12;101725.0;;;24.39;25.65
48530;BME280;34927;37.302;-121.982;2023-03-26T05:09:17;101726.0;;;24.32;25.60
48530;BME280;34927;37.302;-121.982;2023-03-26T05:10:22;101727.0;;;24.20;25.77
48530;BME280;34927;37.302;-121.982;2023-03-26T05:11:26;101727.0;;;24.10;25.90
48530;BME280;34927;37.302;-121.982;2023-03-26T05:12:32;101731.0;;;23.91;26.02
48530;BME280;34927;37.302;-121.982;2023-03-26T05:13:37;101734.0;;;23.83;25.98
48530;BME280;34927;37.302;-121.982;2023-03-26T05:14:41;101730.0;;;23.73;26.18
48530;BME280;34927;37.302;-121.982;2023-03-26T05:15:47;101734.0;;;23.74;26.13
48530;BME280;34927;37.302;-121.982;2023-03-26T05:16:51;101733.0;;;23.94;26.02
48530;BME280;34927;37.302;-121.982;2023-03-26T05:17:56;101733.0;;;24.22;25.71
48530;BME280;34927;37.302;-121.982;2023-03-26T05:19:01;101730.0;;;24.42;25.43
48530;BME280;34927;37.302;-121.982;2023-03-26T05:20:13;101729.0;;;24.73;25.13
48530;BME280;34927;37.302;-121.982;2023-03-26T05:21:17;101728.0;;;24.97;24.82
48530;BME280;34927;37.302;-121.982;2023-03-26T05:22:23;101731.0;;;25.19;24.58
48530;BME280;34927;37.302;-121.982;2023-03-26T05:23:27;101734.0;;;25.19;24.47
48530;BME280;34927;37.302;-121.982;2023-03-26T05:24:32;101735.0;;;24.99;24.69
48530;BME280;34927;37.302;-121.982;2023-03-26T05:25:37;101734.0;;;24.74;25.38
48530;BME280;34927;37.302;-121.982;2023-03-26T05:26:42;101736.0;;;24.45;25.56
48530;BME280;34927;37.302;-121.982;2023-03-26T05:27:47;101743.0;;;24.36;25.62
48530;BME280;34927;37.302;-121.982;2023-03-26T05:28:52;101745.0;;;24.16;25.84
48530;BME280;34927;37.302;-121.982;2023-03-26T05:30:00;101743.0;;;24.02;25.90
48530;BME280;34927;37.302;-121.982;2023-03-26T05:31:07;101743.0;;;23.92;26.18
48530;BME280;34927;37.302;-121.982;2023-03-26T05:32:12;101743.0;;;23.68;26.48
48530;BME280;34927;37.302;-121.982;2023-03-26T05:33:17;101738.0;;;23.63;26.44
48530;BME280;34927;37.302;-121.982;2023-03-26T05:34:22;101736.0;;;23.48;26.62
48530;BME280;34927;37.302;-121.982;2023-03-26T05:35:27;101734.0;;;23.56;26.61
48530;BME280;34927;37.302;-121.982;2023-03-26T05:36:31;101732.0;;;23.47;26.71
48530;BME280;34927;37.302;-121.982;2023-03-26T05:37:37;101729.0;;;23.40;26.75
48530;BME280;34927;37.302;-121.982;2023-03-26T05:38:42;101729.0;;;23.37;26.80